createdAt,value
2023-04-23T00:01:43.151Z,6.32
2023-04-23T00:04:10.836Z,6.57
2023-04-23T00:06:37.867Z,6.15
2023-04-23T00:09:05.112Z,6.20
2023-04-23T00:11:31.938Z,5.72
2023-04-23T00:13:58.423Z,6.38
2023-04-23T00:16:25.145Z,6.30
2023-04-23T00:18:51.639Z,6.30
2023-04-23T00:21:18.161Z,6.55
2023-04-23T00:23:44.639Z,6.38
2023-04-23T00:26:11.145Z,6.07
2023-04-23T00:28:37.584Z,5.55
2023-04-23T00:31:04.053Z,5.45
2023-04-23T00:33:30.628Z,6.03
2023-04-23T00:35:57.209Z,5.50
2023-04-23T00:38:23.811Z,6.18
2023-04-23T00:40:50.354Z,6.03
2023-04-23T00:43:17.750Z,6.65
2023-04-23T00:45:44.606Z,6.70
2023-04-23T00:48:11.904Z,5.90
2023-04-23T00:50:38.475Z,7.60
2023-04-23T00:53:04.950Z,6.60
2023-04-23T00:55:31.527Z,6.63
2023-04-23T00:57:58.023Z,7.03
2023-04-23T01:00:24.542Z,8.25
2023-04-23T01:02:53.145Z,8.45
2023-04-23T01:05:20.329Z,7.78
2023-04-23T01:07:47.052Z,7.03
2023-04-23T01:10:13.723Z,7.07
2023-04-23T01:12:40.395Z,6.95
2023-04-23T01:15:09.051Z,7.78
2023-04-23T01:17:35.802Z,7.43
2023-04-23T01:20:02.594Z,7.38
2023-04-23T01:22:29.126Z,7.43
2023-04-23T01:24:55.926Z,5.97
2023-04-23T01:27:24.945Z,7.13
2023-04-23T01:29:52.076Z,6.65
2023-04-23T01:32:18.623Z,6.78
2023-04-23T01:34:46.863Z,6.57
2023-04-23T01:37:13.790Z,6.47
2023-04-23T01:39:40.561Z,6.53
2023-04-23T01:42:07.366Z,6.40
2023-04-23T01:44:33.954Z,6.55
2023-04-23T01:47:00.552Z,6.60
2023-04-23T01:49:27.364Z,6.65
2023-04-23T01:51:53.912Z,7.57
2023-04-23T01:54:20.440Z,6.97
2023-04-23T01:56:47.126Z,7.55
2023-04-23T01:59:13.669Z,7.07
2023-04-23T02:01:46.705Z,7.30
2023-04-23T02:04:14.346Z,7.05
2023-04-23T02:06:41.873Z,7.00
2023-04-23T02:09:08.759Z,6.65
2023-04-23T02:11:35.382Z,6.78
2023-04-23T02:14:02.390Z,6.72
2023-04-23T02:16:28.947Z,7.38
2023-04-23T02:18:55.844Z,7.45
2023-04-23T02:21:25.322Z,7.70
2023-04-23T02:23:52.022Z,7.38
2023-04-23T02:26:18.938Z,7.55
2023-04-23T02:28:46.332Z,7.22
2023-04-23T02:31:12.871Z,7.88
2023-04-23T02:33:39.533Z,7.13
2023-04-23T02:36:06.389Z,7.68
2023-04-23T02:38:32.875Z,7.35
2023-04-23T02:40:59.423Z,7.22
2023-04-23T02:43:25.888Z,7.38
2023-04-23T02:45:52.390Z,6.72
2023-04-23T02:48:19.009Z,6.55
2023-04-23T02:50:46.835Z,6.90
2023-04-23T02:53:13.377Z,6.85
2023-04-23T02:55:39.857Z,8.32
2023-04-23T02:58:06.600Z,7.35
2023-04-23T03:00:33.176Z,7.80
2023-04-23T03:02:59.737Z,7.60
2023-04-23T03:05:26.302Z,7.20
2023-04-23T03:07:52.819Z,7.20
2023-04-23T03:10:19.407Z,6.75
2023-04-23T03:12:45.905Z,7.63
2023-04-23T03:15:12.395Z,6.65
2023-04-23T03:17:39.008Z,6.97
2023-04-23T03:20:05.845Z,6.95
2023-04-23T03:22:32.272Z,5.90
2023-04-23T03:24:58.856Z,6.70
2023-04-23T03:27:25.399Z,6.60
2023-04-23T03:29:51.976Z,5.47
2023-04-23T03:32:18.603Z,5.18
2023-04-23T03:34:45.043Z,5.63
2023-04-23T03:37:11.584Z,6.20
2023-04-23T03:39:38.422Z,5.90
2023-04-23T03:42:05.501Z,5.75
2023-04-23T03:44:32.139Z,5.95
2023-04-23T03:46:58.630Z,5.72
2023-04-23T03:49:26.501Z,6.05
2023-04-23T03:51:53.045Z,6.55
2023-04-23T03:54:19.752Z,6.18
2023-04-23T03:56:46.319Z,5.85
2023-04-23T03:59:12.834Z,6.32
2023-04-23T04:01:39.326Z,5.50
2023-04-23T04:04:06.245Z,6.75
2023-04-23T04:06:33.294Z,6.18
2023-04-23T04:08:59.867Z,5.90
2023-04-23T04:11:26.882Z,6.03
2023-04-23T04:13:53.358Z,6.93
2023-04-23T04:16:19.802Z,5.75
2023-04-23T04:18:46.404Z,6.57
2023-04-23T04:21:12.899Z,6.80
2023-04-23T04:23:39.933Z,6.70
2023-04-23T04:26:07.959Z,7.45
2023-04-23T04:28:36.414Z,5.95
2023-04-23T04:31:03.190Z,6.32
2023-04-23T04:33:29.704Z,6.13
2023-04-23T04:35:56.647Z,5.80
2023-04-23T04:38:23.252Z,6.38
2023-04-23T04:40:50.584Z,6.82
2023-04-23T04:43:17.330Z,5.93
2023-04-23T04:45:44.877Z,5.65
2023-04-23T04:48:11.394Z,5.22
2023-04-23T04:50:38.010Z,6.15
2023-04-23T04:53:04.498Z,5.03
2023-04-23T04:55:31.383Z,5.20
2023-04-23T04:57:57.882Z,6.13
2023-04-23T05:00:26.749Z,5.80
2023-04-23T05:02:53.565Z,5.75
2023-04-23T05:05:20.847Z,6.22
2023-04-23T05:07:47.600Z,5.85
2023-04-23T05:10:14.991Z,5.43
2023-04-23T05:12:42.349Z,5.28
2023-04-23T05:15:16.509Z,5.72
2023-04-23T05:17:43.268Z,5.72
2023-04-23T05:20:13.194Z,6.00
2023-04-23T05:22:41.626Z,6.82
2023-04-23T05:25:09.259Z,5.07
2023-04-23T05:27:35.820Z,5.38
2023-04-23T05:30:03.098Z,5.55
2023-04-23T05:32:29.707Z,5.10
2023-04-23T05:34:56.227Z,4.75
2023-04-23T05:37:22.835Z,4.55
2023-04-23T05:39:49.311Z,4.43
2023-04-23T05:42:15.832Z,5.55
2023-04-23T05:44:42.652Z,5.22
2023-04-23T05:47:10.050Z,5.65
2023-04-23T05:49:36.794Z,4.65
2023-04-23T05:52:03.531Z,5.43
2023-04-23T05:54:29.994Z,5.35
2023-04-23T05:56:56.492Z,4.68
2023-04-23T05:59:22.997Z,4.60
2023-04-23T06:01:49.850Z,4.55
2023-04-23T06:04:16.821Z,4.90
2023-04-23T06:06:43.653Z,4.55
2023-04-23T06:09:10.172Z,4.82
2023-04-23T06:11:36.755Z,4.90
2023-04-23T06:14:03.433Z,4.47
2023-04-23T06:16:30.534Z,4.93
2023-04-23T18:48:23.559Z,5.90
2023-04-23T18:50:50.666Z,4.90
2023-04-23T18:53:17.292Z,4.22
2023-04-23T18:55:43.928Z,4.78
2023-04-23T18:58:10.754Z,5.25
2023-04-23T19:00:37.446Z,4.80
2023-04-23T19:03:11.935Z,5.68
2023-04-23T19:05:42.592Z,4.57
2023-04-23T19:08:09.331Z,4.65
2023-04-23T19:10:37.533Z,4.90
2023-04-23T19:13:06.674Z,4.43
2023-04-23T19:15:33.406Z,5.20
2023-04-23T19:18:00.728Z,4.90
2023-04-23T19:20:27.606Z,5.10
2023-04-23T19:22:56.900Z,5.18
2023-04-23T19:25:23.631Z,5.65
2023-04-23T19:27:50.337Z,5.72
2023-04-23T19:30:16.983Z,5.90
2023-04-23T19:32:43.905Z,6.43
2023-04-23T19:35:11.820Z,5.32
2023-04-23T19:37:38.462Z,6.05
2023-04-23T19:40:05.630Z,5.82
2023-04-23T19:42:32.712Z,5.90
2023-04-23T19:44:59.433Z,6.28
2023-04-23T19:47:25.972Z,6.10
2023-04-23T19:49:52.489Z,6.55
2023-04-23T19:52:20.595Z,6.95
2023-04-23T19:54:49.313Z,6.90
2023-04-23T19:57:18.371Z,6.88
2023-04-23T19:59:45.399Z,7.20
2023-04-23T20:02:11.999Z,7.63
2023-04-23T20:04:38.730Z,7.95
2023-04-23T20:07:06.559Z,8.00
2023-04-23T20:09:33.256Z,7.70
2023-04-23T20:12:01.486Z,7.72
2023-04-23T20:14:28.017Z,7.82
2023-04-23T20:16:54.597Z,7.35
2023-04-23T20:19:21.153Z,7.22
2023-04-23T20:21:47.978Z,7.25
2023-04-23T20:24:14.612Z,6.85
2023-04-23T20:26:41.634Z,7.38
2023-04-23T20:29:08.544Z,7.15
2023-04-23T20:31:35.414Z,8.02
2023-04-23T20:34:02.341Z,7.55
2023-04-23T20:36:29.687Z,7.47
2023-04-23T20:38:59.032Z,7.80
2023-04-23T20:41:31.317Z,8.98
2023-04-23T20:44:01.996Z,8.23
2023-04-23T20:46:30.278Z,8.73
2023-04-23T20:48:59.422Z,7.43
2023-04-23T20:51:27.471Z,7.43
2023-04-23T20:53:54.142Z,7.88
2023-04-23T20:56:21.510Z,7.38
2023-04-23T20:58:47.991Z,6.82
2023-04-23T21:01:14.497Z,7.32
2023-04-23T21:03:41.224Z,6.65
2023-04-23T21:06:09.512Z,6.63
2023-04-23T21:08:38.866Z,7.30
2023-04-23T21:11:05.622Z,6.93
2023-04-23T21:13:32.128Z,5.65
2023-04-23T21:15:58.769Z,5.35
2023-04-23T21:18:25.295Z,6.13
2023-04-23T21:20:51.886Z,5.75
2023-04-23T21:23:18.362Z,5.40
2023-04-23T21:25:44.837Z,5.63
2023-04-23T21:28:11.330Z,6.20
2023-04-23T21:30:51.431Z,5.38
2023-04-23T21:33:22.198Z,6.15
2023-04-23T21:35:50.785Z,6.70
2023-04-23T21:38:17.787Z,6.57
2023-04-23T21:40:44.633Z,5.38
2023-04-23T21:43:11.624Z,6.38
2023-04-23T21:45:38.595Z,6.13
2023-04-23T21:48:06.004Z,5.97
2023-04-23T21:50:32.834Z,6.15
2023-04-23T21:52:59.639Z,5.97
2023-04-23T21:55:26.934Z,6.55
2023-04-23T21:57:54.985Z,6.13
2023-04-23T22:00:23.883Z,6.07
2023-04-23T22:02:55.099Z,6.80
2023-04-23T22:07:50.239Z,5.55
2023-04-23T22:10:17.556Z,5.88
2023-04-23T22:12:44.894Z,5.75
2023-04-23T22:15:13.237Z,6.13
2023-04-23T22:17:39.784Z,5.53
2023-04-23T22:20:07.174Z,6.03
2023-04-23T22:22:34.505Z,5.70
2023-04-23T22:25:01.318Z,5.90
2023-04-23T22:27:28.137Z,6.10
2023-04-23T22:29:54.895Z,5.93
2023-04-23T22:32:21.648Z,6.82
2023-04-23T22:34:48.152Z,7.00
2023-04-23T22:37:14.647Z,6.38
2023-04-23T22:39:41.501Z,5.47
2023-04-23T22:42:08.169Z,5.65
2023-04-23T22:44:34.677Z,4.95
2023-04-23T22:47:01.191Z,6.50
2023-04-23T22:49:27.798Z,5.85
2023-04-23T22:51:54.320Z,4.75
2023-04-23T22:54:21.485Z,5.32
2023-04-23T22:56:48.079Z,5.30
2023-04-23T22:59:14.590Z,4.72
2023-04-23T23:01:41.612Z,4.43
2023-04-23T23:04:08.121Z,5.25
2023-04-23T23:06:34.568Z,4.13
2023-04-23T23:09:01.068Z,4.85
2023-04-23T23:11:30.368Z,4.53
2023-04-23T23:13:57.373Z,4.50
2023-04-23T23:16:24.286Z,4.53
2023-04-23T23:18:51.191Z,4.88
2023-04-23T23:21:18.120Z,3.95
2023-04-23T23:23:44.695Z,4.22
2023-04-23T23:26:11.187Z,4.50
2023-04-23T23:28:37.684Z,3.75
2023-04-23T23:31:04.421Z,3.50
2023-04-23T23:33:30.945Z,4.40
2023-04-23T23:35:57.494Z,3.55
2023-04-23T23:38:23.953Z,4.05
2023-04-23T23:40:50.487Z,3.95
2023-04-23T23:43:17.011Z,3.80
2023-04-23T23:45:43.517Z,4.25
2023-04-23T23:48:10.136Z,3.60
2023-04-23T23:50:36.682Z,3.40
2023-04-23T23:53:03.536Z,3.38
2023-04-23T23:55:30.105Z,4.00
2023-04-23T23:57:56.723Z,3.60
